Fairbanks, AK

12:40 PM AKST on December 09, 2016 (GMT -0900)
200 Slater Dr. | | Change Station

Elev 450 ft 64.84 °N, 147.70 °W | Updated 8 seconds ago

Clear
Clear
-14.3 °F
Feels Like -14 °F
N
0.0
Wind Variable Wind from North
Gusts 0.0 mph

Today
High -- | Low -- °F
--% Chance of Precip.
Yesterday
High -- | Low -- °F
Precip. -- in
Pressure 30.48 in
Visibility 10.0 miles
Clouds Clear
Windchill -14 °F
Dew Point -18 °F
Humidity 83%
Rainfall 0.00 in
Snow Depth Not available.
10:41 AM 2:44 PM
Waxing Gibbous, 77% visible
METAR PAFB 092058Z 00000KT 10SM CLR M30/M33 A3041 RMK AO2A SLP321 T12981328 50004
Pressure 30.48 in
Visibility 10.0 miles
Clouds Clear
Windchill -14 °F
Dew Point -18 °F
Humidity 83%
Rainfall 0.00 in
Snow Depth Not available.
10:41 AM 2:44 PM
Waxing Gibbous, 77% visible
METAR PAFB 092058Z 00000KT 10SM CLR M30/M33 A3041 RMK AO2A SLP321 T12981328 50004

10-Day Weather Forecast

Almanac

Astronomy

Dec. 09, 2016 Rise Set
Actual Time
Civil Twilight
Nautical Twilight
Astronomical Twilight
Moon
Length of Visible Light
Length of Day
Tomorrow will be .
, % of the Moon is Illuminated

Today's Extremes

State Highs State Lows

Community

WunderPhotos

Upload Photos

1,956,517 photos uploaded!

WunderBlog® & News

Nearby

Air Quality

  Air Quality AQ Index Pollutant
Not available.

Snow Depth

Station Depth Elevation

Earthquake Activity

City Distance Mag. Time & Date
Minimum magnitude displayed is 2.5.

Coastal Water Temperatures

Place Temperature

Stations

Nearby Weather Stations

Station Location Temp. Windchill Dew Point Humidity Wind Precip. Elev Updated Type
                   

Watches & Warnings

There are currently no watches in effect.